Time;durP1;ratioP1;P1;durP2;ratioP2;P2;SDS_P1;SDS_P2;PMS_P1;PMS_P2;Temp;Humidity;BMP_temperature;BMP_pressure;BME280_temperature;BME280_humidity;BME280_pressure;Samples;Min_cycle;Max_cycle;Signal;HPM_P1;HPM_P2
2023/04/03 00:02:02;;;;;;;;;;;19.90;41.30;;;;;;5101515;28;19976;-60
2023/04/03 00:04:30;;;;;;;;;;;19.90;41.40;;;;;;5124622;28;19931;-61
2023/04/03 00:06:57;;;;;;;;;;;19.90;41.30;;;;;;5086940;28;19927;-61
2023/04/03 00:09:24;;;;;;;;;;;19.90;41.40;;;;;;5106484;28;19919;-61
2023/04/03 00:11:53;;;;;;;;;;;19.90;41.30;;;;;;5124887;27;19920;-60
2023/04/03 00:14:20;;;;;;;;;;;19.90;41.40;;;;;;5102740;28;19980;-61
2023/04/03 00:16:47;;;;;;;;;;;19.90;41.40;;;;;;5112618;27;19924;-60
2023/04/03 00:19:14;;;;;;;;;;;19.90;41.40;;;;;;5101264;27;19951;-61
2023/04/03 00:21:41;;;;;;;;;;;19.90;41.40;;;;;;5106841;27;19968;-62
2023/04/03 00:24:07;;;;;;;;;;;19.90;41.40;;;;;;5104417;27;19932;-61
2023/04/03 00:26:36;;;;;;;;;;;19.90;41.40;;;;;;5119143;27;19920;-61
2023/04/03 00:29:06;;;;;;;;;;;19.90;41.40;;;;;;5103248;27;19923;-62
2023/04/03 00:31:33;;;;;;;;;;;19.90;41.50;;;;;;5107090;27;19920;-62
2023/04/03 00:34:00;;;;;;;;;;;19.90;41.50;;;;;;5106059;27;19931;-63
2023/04/03 00:36:27;;;;;;;;;;;19.90;41.40;;;;;;5111256;27;19927;-63
2023/04/03 00:38:54;;;;;;;;;;;19.90;41.50;;;;;;5108030;27;19920;-58
2023/04/03 00:41:21;;;;;;;;;;;19.90;41.50;;;;;;5108998;27;19942;-62
2023/04/03 00:43:47;;;;;;;;;;;19.90;41.50;;;;;;5117411;27;19920;-58
2023/04/03 00:46:16;;;;;;;;;;;19.90;41.50;;;;;;5106402;28;19964;-60
2023/04/03 00:48:43;;;;;;;;;;;19.90;41.50;;;;;;5110934;27;19973;-61
2023/04/03 00:51:11;;;;;;;;;;;19.90;41.50;;;;;;5106059;27;19919;-62
2023/04/03 00:53:39;;;;;;;;;;;19.90;41.50;;;;;;5117989;27;19923;-60
2023/04/03 00:56:06;;;;;;;;;;;19.90;41.50;;;;;;5103184;27;19934;-62
2023/04/03 00:58:34;;;;;;;;;;;19.90;42.20;;;;;;5104555;27;19931;-61
2023/04/03 01:01:01;;;;;;;;;;;19.90;41.60;;;;;;5115425;27;20021;-61
2023/04/03 01:03:31;;;;;;;;;;;19.90;41.60;;;;;;5102328;27;20019;-61
2023/04/03 01:05:58;;;;;;;;;;;19.90;41.60;;;;;;5122027;27;19919;-61
2023/04/03 01:08:24;;;;;;;;;;;19.90;41.60;;;;;;5118661;27;19969;-61
2023/04/03 01:10:51;;;;;;;;;;;19.90;41.60;;;;;;5124864;27;20285;-61
2023/04/03 01:13:19;;;;;;;;;;;19.90;41.60;;;;;;5102924;27;20517;-60
2023/04/03 01:15:46;;;;;;;;;;;19.90;41.60;;;;;;5122043;27;19919;-61
2023/04/03 01:18:12;;;;;;;;;;;19.90;41.70;;;;;;5115300;27;19932;-60
2023/04/03 01:21:10;;;;;;;;;;;19.90;41.70;;;;;;5102898;27;19924;-62
2023/04/03 01:23:41;;;;;;;;;;;19.90;41.70;;;;;;5117946;27;20022;-60
2023/04/03 01:26:09;;;;;;;;;;;19.90;41.70;;;;;;5100667;27;19941;-61
2023/04/03 01:28:36;;;;;;;;;;;19.90;41.70;;;;;;5097694;27;20026;-62
2023/04/03 01:31:04;;;;;;;;;;;19.90;41.80;;;;;;5095443;27;19973;-61
2023/04/03 01:33:32;;;;;;;;;;;19.90;41.70;;;;;;5100530;27;19965;-62
2023/04/03 01:35:58;;;;;;;;;;;19.90;41.80;;;;;;5098931;28;19976;-61
2023/04/03 01:38:25;;;;;;;;;;;19.90;41.80;;;;;;5116700;27;20238;-62
2023/04/03 01:40:52;;;;;;;;;;;19.90;41.80;;;;;;5123374;27;19997;-62
2023/04/03 01:43:19;;;;;;;;;;;19.90;41.80;;;;;;5099546;27;19919;-62
2023/04/03 01:45:46;;;;;;;;;;;19.90;41.80;;;;;;5102724;27;19931;-62
2023/04/03 01:48:13;;;;;;;;;;;19.90;41.80;;;;;;5119006;27;19927;-62
2023/04/03 01:50:41;;;;;;;;;;;19.90;41.90;;;;;;5117243;27;19924;-61
2023/04/03 01:53:07;;;;;;;;;;;19.90;41.80;;;;;;5094211;27;19928;-62
2023/04/03 01:55:34;;;;;;;;;;;19.90;41.80;;;;;;5097902;28;19947;-62
2023/04/03 01:58:01;;;;;;;;;;;19.90;41.80;;;;;;5100894;28;19919;-62
2023/04/03 02:00:28;;;;;;;;;;;19.90;41.90;;;;;;5121024;27;20018;-61
2023/04/03 02:02:55;;;;;;;;;;;19.90;41.90;;;;;;5103955;27;19992;-62
2023/04/03 02:05:21;;;;;;;;;;;19.90;41.80;;;;;;5098391;27;19930;-61
2023/04/03 02:07:50;;;;;;;;;;;19.90;41.80;;;;;;5097548;27;19969;-61
2023/04/03 02:10:17;;;;;;;;;;;19.90;41.90;;;;;;5098882;27;19969;-62
2023/04/03 02:12:45;;;;;;;;;;;19.90;41.90;;;;;;5101381;27;19920;-60
2023/04/03 02:15:11;;;;;;;;;;;19.90;41.90;;;;;;5099683;27;19972;-62
2023/04/03 02:17:38;;;;;;;;;;;19.90;41.90;;;;;;5102193;27;19927;-62
2023/04/03 02:20:05;;;;;;;;;;;19.90;41.90;;;;;;5103745;27;20409;-62
2023/04/03 02:22:32;;;;;;;;;;;19.90;41.90;;;;;;5094746;28;19919;-62
2023/04/03 02:25:00;;;;;;;;;;;19.90;41.90;;;;;;5102726;27;19980;-61
2023/04/03 02:27:27;;;;;;;;;;;19.90;41.90;;;;;;5120204;27;19923;-62
2023/04/03 02:29:54;;;;;;;;;;;19.90;41.90;;;;;;5104227;27;20300;-61
2023/04/03 02:32:21;;;;;;;;;;;19.90;41.90;;;;;;5104817;27;19933;-61
2023/04/03 02:34:48;;;;;;;;;;;19.90;41.90;;;;;;5103053;27;19927;-62
2023/04/03 02:37:15;;;;;;;;;;;19.90;41.90;;;;;;5102993;27;19919;-61
2023/04/03 02:39:41;;;;;;;;;;;19.90;41.90;;;;;;5099091;28;19972;-62
2023/04/03 02:42:10;;;;;;;;;;;19.90;41.90;;;;;;5101959;27;19927;-61
2023/04/03 02:44:36;;;;;;;;;;;19.90;41.90;;;;;;5117349;27;19955;-61
2023/04/03 02:47:03;;;;;;;;;;;19.90;41.90;;;;;;5096979;27;19924;-61
2023/04/03 02:49:30;;;;;;;;;;;19.90;42.00;;;;;;5117406;27;19923;-62
2023/04/03 02:51:57;;;;;;;;;;;19.90;41.90;;;;;;5094647;28;19932;-61
2023/04/03 02:54:27;;;;;;;;;;;19.90;42.00;;;;;;5115607;27;19927;-61
2023/04/03 02:56:54;;;;;;;;;;;19.90;42.00;;;;;;5103800;27;19924;-61
2023/04/03 02:59:22;;;;;;;;;;;19.90;42.00;;;;;;5096988;28;19927;-61
2023/04/03 03:01:49;;;;;;;;;;;19.90;42.00;;;;;;5119563;27;19932;-62
2023/04/03 03:04:16;;;;;;;;;;;19.90;42.00;;;;;;5101408;27;20373;-61
2023/04/03 03:06:42;;;;;;;;;;;19.90;42.00;;;;;;5098878;27;19931;-61
2023/04/03 03:09:09;;;;;;;;;;;19.90;42.00;;;;;;5100553;27;19920;-60
2023/04/03 03:11:36;;;;;;;;;;;19.90;42.00;;;;;;5118182;27;19919;-61
2023/04/03 03:14:03;;;;;;;;;;;19.90;42.10;;;;;;5096766;28;19927;-61
2023/04/03 03:16:31;;;;;;;;;;;19.90;42.10;;;;;;5103066;28;19919;-61
2023/04/03 03:18:58;;;;;;;;;;;19.90;42.10;;;;;;5093699;27;19928;-60
2023/04/03 03:21:24;;;;;;;;;;;19.90;42.10;;;;;;5105530;27;19987;-59
2023/04/03 03:23:51;;;;;;;;;;;19.90;42.10;;;;;;5115144;27;19927;-61
2023/04/03 03:26:18;;;;;;;;;;;19.90;42.10;;;;;;5095272;28;19977;-63
2023/04/03 03:28:44;;;;;;;;;;;19.90;42.10;;;;;;5094192;27;19923;-61
2023/04/03 03:31:12;;;;;;;;;;;19.90;42.10;;;;;;5103095;27;19930;-62
2023/04/03 03:33:40;;;;;;;;;;;19.90;42.10;;;;;;5119049;27;19919;-61
2023/04/03 03:36:07;;;;;;;;;;;19.90;42.20;;;;;;5101469;27;19953;-61
2023/04/03 03:38:33;;;;;;;;;;;19.90;42.20;;;;;;5099418;28;19927;-61
2023/04/03 03:41:01;;;;;;;;;;;19.90;42.20;;;;;;5101923;28;19923;-60
2023/04/03 03:43:28;;;;;;;;;;;19.90;42.20;;;;;;5112861;27;19924;-62
2023/04/03 03:45:55;;;;;;;;;;;19.90;42.20;;;;;;5104619;27;19997;-60
2023/04/03 03:48:22;;;;;;;;;;;19.90;42.20;;;;;;5099183;28;19925;-61
2023/04/03 03:50:50;;;;;;;;;;;19.90;42.20;;;;;;5119322;28;19970;-60
2023/04/03 03:53:17;;;;;;;;;;;19.90;42.20;;;;;;5099489;28;19919;-61
2023/04/03 03:55:44;;;;;;;;;;;19.90;42.20;;;;;;5096776;28;19967;-61
2023/04/03 03:58:11;;;;;;;;;;;19.90;42.20;;;;;;5097152;28;20457;-61
2023/04/03 04:00:38;;;;;;;;;;;19.90;42.20;;;;;;5115725;28;20337;-62
2023/04/03 04:03:04;;;;;;;;;;;19.90;42.20;;;;;;5096156;28;19927;-61
2023/04/03 04:05:31;;;;;;;;;;;19.90;42.20;;;;;;5098697;28;19919;-61
2023/04/03 04:08:00;;;;;;;;;;;19.90;42.20;;;;;;5116707;28;19923;-61
2023/04/03 04:10:26;;;;;;;;;;;19.90;42.20;;;;;;5117507;28;19988;-61
2023/04/03 04:12:53;;;;;;;;;;;19.90;42.30;;;;;;5102759;28;19920;-61
2023/04/03 04:15:21;;;;;;;;;;;19.90;42.30;;;;;;5100445;28;19919;-61
2023/04/03 04:17:48;;;;;;;;;;;19.90;42.20;;;;;;5111429;28;20270;-61
2023/04/03 04:20:14;;;;;;;;;;;19.90;42.30;;;;;;5096505;28;19965;-60
2023/04/03 04:22:41;;;;;;;;;;;19.90;42.30;;;;;;5098103;28;20040;-62
2023/04/03 04:25:10;;;;;;;;;;;19.90;42.30;;;;;;5102951;28;19930;-61
2023/04/03 04:27:36;;;;;;;;;;;19.90;42.30;;;;;;5098752;28;19989;-61
2023/04/03 04:30:04;;;;;;;;;;;19.90;42.30;;;;;;5099664;28;19924;-61
2023/04/03 04:32:31;;;;;;;;;;;19.90;42.30;;;;;;5098905;28;19924;-61
2023/04/03 04:34:57;;;;;;;;;;;19.90;42.30;;;;;;5095030;28;19927;-60
2023/04/03 04:37:24;;;;;;;;;;;19.90;42.30;;;;;;5118749;28;19920;-61
2023/04/03 04:39:51;;;;;;;;;;;19.90;42.30;;;;;;5100859;28;20277;-60
2023/04/03 04:42:19;;;;;;;;;;;19.90;42.30;;;;;;5117110;28;19923;-60
2023/04/03 04:44:46;;;;;;;;;;;19.90;42.30;;;;;;5102170;28;19920;-59
2023/04/03 04:47:13;;;;;;;;;;;19.90;42.40;;;;;;5097346;28;19924;-60
2023/04/03 04:49:39;;;;;;;;;;;19.90;42.30;;;;;;5090969;28;19920;-61
2023/04/03 04:52:06;;;;;;;;;;;19.90;42.40;;;;;;5094389;28;20383;-59
2023/04/03 04:54:33;;;;;;;;;;;19.90;42.40;;;;;;5090348;28;19926;-61
2023/04/03 04:57:00;;;;;;;;;;;19.90;42.40;;;;;;5109970;28;20011;-60
2023/04/03 04:59:28;;;;;;;;;;;19.90;42.40;;;;;;5102588;28;19942;-60
2023/04/03 05:01:55;;;;;;;;;;;19.90;42.40;;;;;;5112321;27;20324;-60
2023/04/03 05:04:22;;;;;;;;;;;19.90;42.40;;;;;;5093454;27;19932;-61
2023/04/03 05:06:49;;;;;;;;;;;19.90;42.40;;;;;;5094462;28;19923;-60
2023/04/03 05:09:16;;;;;;;;;;;19.90;42.40;;;;;;5097436;28;19920;-61
2023/04/03 05:11:43;;;;;;;;;;;19.90;42.40;;;;;;5111640;27;19969;-61
2023/04/03 05:14:10;;;;;;;;;;;19.90;42.40;;;;;;5112670;27;20274;-60
2023/04/03 05:16:38;;;;;;;;;;;19.90;42.50;;;;;;5104252;27;19920;-62
2023/04/03 05:19:05;;;;;;;;;;;19.90;42.50;;;;;;5099807;28;19991;-60
2023/04/03 05:21:32;;;;;;;;;;;20.00;42.60;;;;;;5100237;27;20413;-60
2023/04/03 05:23:59;;;;;;;;;;;19.90;42.50;;;;;;5121698;27;19977;-60
2023/04/03 05:26:26;;;;;;;;;;;19.90;42.50;;;;;;5117835;27;20006;-61
2023/04/03 05:28:53;;;;;;;;;;;19.90;42.50;;;;;;5100903;27;20344;-61
2023/04/03 05:31:19;;;;;;;;;;;20.00;42.60;;;;;;5101548;27;19923;-59
2023/04/03 05:33:48;;;;;;;;;;;19.90;42.50;;;;;;5121071;27;19934;-61
2023/04/03 05:36:14;;;;;;;;;;;19.90;42.50;;;;;;5118984;27;19926;-61
2023/04/03 05:38:41;;;;;;;;;;;19.90;42.50;;;;;;5102733;27;19924;-62
2023/04/03 05:41:08;;;;;;;;;;;19.90;42.50;;;;;;5098755;27;20401;-60
2023/04/03 05:43:37;;;;;;;;;;;19.90;42.60;;;;;;5120300;27;19930;-60
2023/04/03 05:46:04;;;;;;;;;;;19.90;42.60;;;;;;5103019;27;19953;-60
2023/04/03 05:48:31;;;;;;;;;;;19.90;42.60;;;;;;5105480;27;19919;-60
2023/04/03 05:50:59;;;;;;;;;;;19.90;42.60;;;;;;5099381;27;19920;-59
2023/04/03 05:53:27;;;;;;;;;;;19.90;42.60;;;;;;5099728;28;19920;-61
2023/04/03 05:55:54;;;;;;;;;;;19.90;42.60;;;;;;5098162;28;19920;-62
2023/04/03 05:58:21;;;;;;;;;;;19.90;42.60;;;;;;5112062;27;19924;-61
2023/04/03 06:00:48;;;;;;;;;;;19.90;42.60;;;;;;5136923;27;19926;-62
2023/04/03 06:03:15;;;;;;;;;;;19.90;42.60;;;;;;5119442;27;19920;-62
2023/04/03 06:05:41;;;;;;;;;;;19.90;42.60;;;;;;5119181;27;19919;-62
2023/04/03 06:08:09;;;;;;;;;;;19.90;42.60;;;;;;5099761;28;20075;-61
2023/04/03 06:10:36;;;;;;;;;;;19.90;42.60;;;;;;5101414;27;19923;-62
2023/04/03 06:13:03;;;;;;;;;;;19.90;42.60;;;;;;5137139;27;19981;-62
2023/04/03 06:15:30;;;;;;;;;;;19.90;42.60;;;;;;5101363;28;19924;-63
2023/04/03 06:17:57;;;;;;;;;;;19.90;42.60;;;;;;5097927;28;19920;-62
2023/04/03 06:20:23;;;;;;;;;;;19.90;42.60;;;;;;5116022;28;19928;-62
2023/04/03 06:22:50;;;;;;;;;;;19.90;42.60;;;;;;5096113;28;19923;-61
2023/04/03 06:25:19;;;;;;;;;;;19.90;42.70;;;;;;5132294;27;19994;-62
2023/04/03 06:27:46;;;;;;;;;;;19.90;42.70;;;;;;5114349;28;20322;-62
2023/04/03 06:30:13;;;;;;;;;;;19.90;42.70;;;;;;5115635;28;19927;-62
2023/04/03 06:32:40;;;;;;;;;;;19.90;42.70;;;;;;5115113;28;19928;-63
2023/04/03 06:35:07;;;;;;;;;;;19.90;42.60;;;;;;5115458;28;19973;-62
2023/04/03 06:37:34;;;;;;;;;;;19.90;42.60;;;;;;5115033;28;20352;-62
2023/04/03 06:40:01;;;;;;;;;;;19.90;42.70;;;;;;5122774;27;19928;-62
2023/04/03 06:42:29;;;;;;;;;;;19.90;42.70;;;;;;5114719;28;19951;-62
2023/04/03 06:44:56;;;;;;;;;;;19.90;42.70;;;;;;5114982;28;20299;-62
2023/04/03 06:47:23;;;;;;;;;;;19.90;42.60;;;;;;5097398;28;19980;-62
2023/04/03 06:49:50;;;;;;;;;;;19.90;42.70;;;;;;5093021;28;19923;-58
2023/04/03 06:52:17;;;;;;;;;;;19.90;42.70;;;;;;5101404;28;19924;-61
2023/04/03 06:54:43;;;;;;;;;;;19.90;42.60;;;;;;5097521;28;19927;-62
2023/04/03 06:57:10;;;;;;;;;;;19.90;43.20;;;;;;5095701;28;20486;-62
2023/04/03 06:59:38;;;;;;;;;;;19.90;42.60;;;;;;5112086;28;19924;-62
2023/04/03 07:02:05;;;;;;;;;;;19.90;42.60;;;;;;5093274;28;19926;-61
2023/04/03 07:04:32;;;;;;;;;;;19.90;42.60;;;;;;5102049;28;19926;-63
2023/04/03 07:06:58;;;;;;;;;;;19.90;42.60;;;;;;5092970;28;19927;-62
2023/04/03 07:09:25;;;;;;;;;;;19.90;42.60;;;;;;5105081;28;19961;-62
2023/04/03 07:11:52;;;;;;;;;;;19.90;42.60;;;;;;5103748;28;19920;-62
2023/04/03 07:14:19;;;;;;;;;;;19.90;42.60;;;;;;5089833;28;19919;-61
2023/04/03 07:16:47;;;;;;;;;;;19.90;42.60;;;;;;5091194;28;19920;-62
2023/04/03 07:19:14;;;;;;;;;;;19.90;42.60;;;;;;5095978;28;19969;-62
2023/04/03 07:21:41;;;;;;;;;;;19.90;42.60;;;;;;5107034;28;19924;-59
2023/04/03 07:24:08;;;;;;;;;;;19.90;42.60;;;;;;5095215;28;19920;-62
2023/04/03 07:26:35;;;;;;;;;;;19.90;42.60;;;;;;5109535;28;19926;-61
2023/04/03 07:29:01;;;;;;;;;;;19.90;42.60;;;;;;5098513;28;19931;-63
2023/04/03 07:31:28;;;;;;;;;;;19.90;42.60;;;;;;5117041;27;20018;-62
2023/04/03 07:33:57;;;;;;;;;;;19.90;42.60;;;;;;5131176;27;19923;-61
2023/04/03 07:36:24;;;;;;;;;;;19.90;42.60;;;;;;5112945;27;19926;-62
2023/04/03 07:38:50;;;;;;;;;;;19.90;42.60;;;;;;5093820;28;19923;-62
2023/04/03 07:41:22;;;;;;;;;;;19.90;42.60;;;;;;5102744;28;20991;-62
2023/04/03 07:43:49;;;;;;;;;;;19.90;42.60;;;;;;5087482;28;20323;-62
2023/04/03 07:46:17;;;;;;;;;;;19.90;42.60;;;;;;5111698;28;19920;-62
2023/04/03 07:48:44;;;;;;;;;;;19.90;42.60;;;;;;5112486;28;19920;-61
2023/04/03 07:51:13;;;;;;;;;;;19.90;42.60;;;;;;5114573;28;20014;-63
2023/04/03 07:53:39;;;;;;;;;;;19.90;42.60;;;;;;5096700;28;20019;-62
2023/04/03 07:56:06;;;;;;;;;;;19.90;42.60;;;;;;5106378;28;19927;-62
2023/04/03 07:58:33;;;;;;;;;;;19.90;42.60;;;;;;5076346;28;19920;-61
2023/04/03 08:01:00;;;;;;;;;;;19.90;42.60;;;;;;5094630;28;19933;-62
2023/04/03 08:03:27;;;;;;;;;;;19.90;42.60;;;;;;5094890;28;19935;-62
2023/04/03 08:05:54;;;;;;;;;;;19.90;42.60;;;;;;5075833;28;19970;-61
2023/04/03 08:08:22;;;;;;;;;;;19.90;42.60;;;;;;5075910;28;20362;-62
2023/04/03 08:10:50;;;;;;;;;;;19.90;42.60;;;;;;5075836;28;20427;-62
2023/04/03 08:13:16;;;;;;;;;;;19.90;42.60;;;;;;5080801;28;19920;-62
2023/04/03 08:15:43;;;;;;;;;;;19.90;42.70;;;;;;5085607;28;19985;-61
2023/04/03 08:18:10;;;;;;;;;;;19.90;42.60;;;;;;5107497;28;20296;-62
2023/04/03 08:20:38;;;;;;;;;;;19.90;42.70;;;;;;5088937;28;19946;-63
2023/04/03 08:23:05;;;;;;;;;;;19.90;42.60;;;;;;5090426;28;20358;-62
2023/04/03 08:25:33;;;;;;;;;;;19.90;42.60;;;;;;5077274;28;19939;-61
2023/04/03 08:28:00;;;;;;;;;;;19.90;42.60;;;;;;5112260;28;19949;-62
2023/04/03 08:30:26;;;;;;;;;;;19.90;42.70;;;;;;5121391;28;19920;-63
2023/04/03 08:32:53;;;;;;;;;;;19.90;42.70;;;;;;5077370;27;20397;-60
2023/04/03 08:35:20;;;;;;;;;;;19.90;42.70;;;;;;5113124;27;19920;-61
2023/04/03 08:37:47;;;;;;;;;;;19.90;42.70;;;;;;5094392;27;19919;-61
2023/04/03 08:40:15;;;;;;;;;;;19.90;42.70;;;;;;5113881;27;19920;-61
2023/04/03 08:42:45;;;;;;;;;;;19.90;42.70;;;;;;5092424;28;20016;-62
2023/04/03 08:45:13;;;;;;;;;;;19.90;42.70;;;;;;5097678;28;20006;-62
2023/04/03 08:47:41;;;;;;;;;;;19.90;42.70;;;;;;5089820;28;20010;-62
2023/04/03 08:50:08;;;;;;;;;;;19.90;42.80;;;;;;5102781;28;19927;-61
2023/04/03 08:52:37;;;;;;;;;;;19.90;42.70;;;;;;5099855;28;19927;-61
2023/04/03 08:55:04;;;;;;;;;;;19.90;42.70;;;;;;5117767;28;19923;-62
2023/04/03 08:57:32;;;;;;;;;;;19.90;42.70;;;;;;5082578;28;19924;-62
2023/04/03 09:00:02;;;;;;;;;;;19.90;42.70;;;;;;5079073;28;20278;-61
2023/04/03 09:02:30;;;;;;;;;;;19.90;42.70;;;;;;5079915;28;19942;-61
2023/04/03 09:04:56;;;;;;;;;;;19.90;42.70;;;;;;5077374;28;19920;-62
2023/04/03 09:07:24;;;;;;;;;;;19.90;42.70;;;;;;5096970;28;19924;-62
2023/04/03 09:09:52;;;;;;;;;;;19.90;42.70;;;;;;5085333;28;20281;-61
2023/04/03 09:12:21;;;;;;;;;;;19.90;42.70;;;;;;5095209;28;19926;-61
2023/04/03 09:14:50;;;;;;;;;;;19.90;42.70;;;;;;5093653;28;19924;-61
2023/04/03 09:17:21;;;;;;;;;;;19.90;42.70;;;;;;5115139;28;19924;-61
2023/04/03 09:19:51;;;;;;;;;;;19.90;42.70;;;;;;5117358;28;19972;-61
2023/04/03 09:22:18;;;;;;;;;;;19.90;42.70;;;;;;5123026;27;19927;-61
2023/04/03 09:24:45;;;;;;;;;;;19.90;42.80;;;;;;5129684;27;19941;-61
2023/04/03 09:27:12;;;;;;;;;;;19.90;43.30;;;;;;5103728;28;19933;-61
2023/04/03 09:29:40;;;;;;;;;;;19.90;42.70;;;;;;5111483;27;19919;-61
2023/04/03 09:32:12;;;;;;;;;;;19.90;42.70;;;;;;5090680;28;19919;-61
2023/04/03 09:34:41;;;;;;;;;;;19.90;42.70;;;;;;5099426;28;19949;-61
2023/04/03 09:37:08;;;;;;;;;;;19.90;43.30;;;;;;5098340;28;19968;-62
2023/04/03 09:39:49;;;;;;;;;;;19.90;42.70;;;;;;5110810;28;19920;-62
2023/04/03 09:42:17;;;;;;;;;;;19.90;42.70;;;;;;5102207;27;19919;-62
2023/04/03 09:44:45;;;;;;;;;;;19.90;42.70;;;;;;5113084;28;19920;-61
2023/04/03 09:47:18;;;;;;;;;;;19.90;42.70;;;;;;5115361;28;19924;-61
2023/04/03 09:49:46;;;;;;;;;;;19.90;42.80;;;;;;5089219;28;20259;-61
2023/04/03 09:52:19;;;;;;;;;;;19.90;42.70;;;;;;5095868;28;20378;-62
2023/04/03 09:54:45;;;;;;;;;;;19.90;42.70;;;;;;5077913;28;19920;-61
2023/04/03 09:57:13;;;;;;;;;;;19.90;42.70;;;;;;5123289;27;19976;-62
2023/04/03 09:59:42;;;;;;;;;;;19.90;42.70;;;;;;5118839;27;19920;-62
2023/04/03 10:02:19;;;;;;;;;;;19.90;42.70;;;;;;5137404;27;19919;-62
2023/04/03 10:04:48;;;;;;;;;;;20.00;42.80;;;;;;5090054;28;19927;-62
2023/04/03 10:07:27;;;;;;;;;;;19.90;42.70;;;;;;5112608;27;19987;-62
2023/04/03 10:09:56;;;;;;;;;;;19.90;42.80;;;;;;5115388;27;19919;-61
2023/04/03 10:12:22;;;;;;;;;;;19.90;42.80;;;;;;5077348;28;20477;-61
2023/04/03 10:14:55;;;;;;;;;;;19.90;42.80;;;;;;5077660;28;19920;-62
2023/04/03 10:17:23;;;;;;;;;;;19.90;42.80;;;;;;5077423;28;19969;-61
2023/04/03 10:19:52;;;;;;;;;;;19.90;42.80;;;;;;5110335;28;20330;-61
2023/04/03 10:22:20;;;;;;;;;;;19.90;42.70;;;;;;5098567;28;19927;-62
2023/04/03 10:24:55;;;;;;;;;;;19.90;42.70;;;;;;5098228;28;19919;-61
2023/04/03 10:27:24;;;;;;;;;;;19.90;42.70;;;;;;5097794;28;19924;-62
2023/04/03 10:29:53;;;;;;;;;;;19.90;42.70;;;;;;5114146;28;19919;-61
2023/04/03 10:32:38;;;;;;;;;;;19.90;42.80;;;;;;5115440;28;19955;-62
2023/04/03 10:35:09;;;;;;;;;;;19.90;42.80;;;;;;5097848;28;19938;-61
2023/04/03 10:37:37;;;;;;;;;;;19.90;42.80;;;;;;5116209;28;19927;-61
2023/04/03 10:40:06;;;;;;;;;;;19.90;42.80;;;;;;5097050;28;19926;-61
2023/04/03 10:42:34;;;;;;;;;;;19.90;43.40;;;;;;5094263;28;19927;-61
2023/04/03 10:45:04;;;;;;;;;;;19.90;42.80;;;;;;5113847;27;19919;-61
2023/04/03 10:47:33;;;;;;;;;;;19.90;42.80;;;;;;5094810;28;19927;-61
2023/04/03 10:50:01;;;;;;;;;;;19.90;42.80;;;;;;5114103;28;19919;-61
2023/04/03 10:52:31;;;;;;;;;;;20.00;42.90;;;;;;5094865;28;19920;-61
2023/04/03 10:55:00;;;;;;;;;;;19.90;42.70;;;;;;5116996;27;19928;-62
2023/04/03 10:57:27;;;;;;;;;;;20.00;42.90;;;;;;5097704;28;19920;-61
2023/04/03 10:59:54;;;;;;;;;;;19.90;42.90;;;;;;5089708;28;19920;-61
2023/04/03 11:02:23;;;;;;;;;;;20.00;43.00;;;;;;5077083;28;19920;-61
2023/04/03 11:04:53;;;;;;;;;;;20.00;43.10;;;;;;5099335;28;19932;-59
2023/04/03 11:07:21;;;;;;;;;;;20.00;43.20;;;;;;5087571;28;19970;-61
2023/04/03 11:09:50;;;;;;;;;;;20.00;43.20;;;;;;5108594;27;19976;-61
2023/04/03 11:12:18;;;;;;;;;;;20.00;43.30;;;;;;5099451;28;19960;-60
2023/04/03 11:14:45;;;;;;;;;;;20.00;43.30;;;;;;5113100;28;19919;-61
2023/04/03 11:17:17;;;;;;;;;;;20.00;43.40;;;;;;5090339;28;19961;-61
2023/04/03 11:19:46;;;;;;;;;;;20.00;43.40;;;;;;5079510;28;20015;-61
2023/04/03 11:22:14;;;;;;;;;;;20.00;43.40;;;;;;5107627;28;19924;-61
2023/04/03 11:24:45;;;;;;;;;;;20.00;43.40;;;;;;5084163;28;19955;-61
2023/04/03 11:27:16;;;;;;;;;;;20.00;43.40;;;;;;5080688;28;19920;-60
2023/04/03 11:29:43;;;;;;;;;;;20.00;43.40;;;;;;5110011;28;19924;-61
2023/04/03 11:32:13;;;;;;;;;;;20.00;43.40;;;;;;5097601;28;19920;-62
2023/04/03 11:34:41;;;;;;;;;;;20.00;43.40;;;;;;5098073;28;19920;-61
2023/04/03 11:37:12;;;;;;;;;;;20.00;43.40;;;;;;5095604;28;19920;-62
2023/04/03 11:39:39;;;;;;;;;;;20.00;43.30;;;;;;5111502;28;19920;-61
2023/04/03 11:42:15;;;;;;;;;;;20.00;43.30;;;;;;5097483;28;19920;-62
2023/04/03 11:44:42;;;;;;;;;;;20.00;43.30;;;;;;5097209;28;19920;-63
2023/04/03 11:47:09;;;;;;;;;;;20.00;43.30;;;;;;5091747;28;19964;-62
2023/04/03 11:49:52;;;;;;;;;;;20.10;43.40;;;;;;5074842;28;19920;-62
2023/04/03 11:52:33;;;;;;;;;;;20.00;43.30;;;;;;5077655;28;19943;-62
2023/04/03 11:55:00;;;;;;;;;;;20.00;43.30;;;;;;5104272;28;19927;-61
2023/04/03 11:57:48;;;;;;;;;;;20.00;43.30;;;;;;5114262;28;20408;-61
2023/04/03 12:00:33;;;;;;;;;;;20.00;43.30;;;;;;5078507;28;19924;-62
2023/04/03 12:03:01;;;;;;;;;;;20.00;43.40;;;;;;5077247;28;20366;-61
2023/04/03 12:05:29;;;;;;;;;;;20.00;43.40;;;;;;5107431;28;19981;-62
2023/04/03 12:08:17;;;;;;;;;;;20.00;43.40;;;;;;5101195;28;19920;-62
2023/04/03 12:10:43;;;;;;;;;;;20.00;43.30;;;;;;5116924;28;19962;-62
2023/04/03 12:13:14;;;;;;;;;;;20.00;43.30;;;;;;5135504;27;19919;-62
2023/04/03 12:15:51;;;;;;;;;;;20.00;43.30;;;;;;5117680;28;19919;-62
2023/04/03 12:18:51;;;;;;;;;;;20.00;43.30;;;;;;5101377;28;20337;-61
2023/04/03 12:21:21;;;;;;;;;;;20.00;43.30;;;;;;5101350;28;19959;-61
2023/04/03 12:24:02;;;;;;;;;;;20.00;43.40;;;;;;5101009;28;19942;-61
2023/04/03 12:26:31;;;;;;;;;;;20.00;43.40;;;;;;5100508;28;19961;-61
2023/04/03 12:28:58;;;;;;;;;;;20.00;43.30;;;;;;5101007;28;19919;-62
2023/04/03 12:31:25;;;;;;;;;;;20.00;43.40;;;;;;5100272;28;19929;-61
2023/04/03 12:34:03;;;;;;;;;;;20.00;43.40;;;;;;5116804;28;19923;-60
2023/04/03 12:36:34;;;;;;;;;;;20.00;43.40;;;;;;5100002;28;19919;-61
2023/04/03 12:39:12;;;;;;;;;;;20.00;43.30;;;;;;5117172;28;20239;-61
2023/04/03 12:41:39;;;;;;;;;;;20.00;43.40;;;;;;5100158;28;19919;-61
2023/04/03 12:44:10;;;;;;;;;;;20.00;43.30;;;;;;5117915;28;19924;-62
2023/04/03 12:46:38;;;;;;;;;;;20.00;43.40;;;;;;5118286;28;19942;-62
2023/04/03 12:49:06;;;;;;;;;;;20.00;43.40;;;;;;5120096;27;19964;-62
2023/04/03 12:51:35;;;;;;;;;;;20.00;43.30;;;;;;5119756;27;19919;-62
2023/04/03 12:54:02;;;;;;;;;;;20.00;43.40;;;;;;5120914;27;19944;-62
2023/04/03 12:56:29;;;;;;;;;;;20.00;43.40;;;;;;5114327;28;19978;-62
2023/04/03 12:58:58;;;;;;;;;;;20.00;44.00;;;;;;5116760;28;19919;-62
2023/04/03 13:01:25;;;;;;;;;;;20.00;43.40;;;;;;5100735;28;19975;-61
2023/04/03 13:03:53;;;;;;;;;;;20.00;43.40;;;;;;5100090;28;20264;-62
2023/04/03 13:06:20;;;;;;;;;;;20.00;43.40;;;;;;5099918;28;19969;-60
2023/04/03 13:08:52;;;;;;;;;;;20.00;43.40;;;;;;5116540;28;19945;-60
2023/04/03 13:11:20;;;;;;;;;;;20.00;43.40;;;;;;5100039;28;19920;-60
2023/04/03 13:13:55;;;;;;;;;;;20.00;43.40;;;;;;5099635;28;19966;-61
2023/04/03 13:16:21;;;;;;;;;;;20.00;43.40;;;;;;5113614;28;20407;-60
2023/04/03 13:18:51;;;;;;;;;;;20.00;43.40;;;;;;5077499;28;19921;-61
2023/04/03 13:21:19;;;;;;;;;;;20.00;43.40;;;;;;5079623;28;19920;-61
2023/04/03 13:23:46;;;;;;;;;;;20.00;43.40;;;;;;5086827;27;19998;-61
2023/04/03 13:26:14;;;;;;;;;;;20.00;43.40;;;;;;5119381;27;19920;-61
2023/04/03 13:28:41;;;;;;;;;;;20.00;43.40;;;;;;5118981;27;19919;-62
2023/04/03 13:31:10;;;;;;;;;;;20.00;43.40;;;;;;5119270;27;19973;-61
2023/04/03 13:33:38;;;;;;;;;;;20.00;43.40;;;;;;5133071;27;19919;-61
2023/04/03 13:36:05;;;;;;;;;;;20.00;43.50;;;;;;5115467;28;19920;-62
2023/04/03 13:38:33;;;;;;;;;;;20.00;43.40;;;;;;5099452;28;19919;-61
2023/04/03 13:41:02;;;;;;;;;;;20.00;43.40;;;;;;5099326;28;19963;-61
2023/04/03 13:43:30;;;;;;;;;;;20.00;43.50;;;;;;5092504;27;19967;-61
2023/04/03 13:45:58;;;;;;;;;;;20.00;43.50;;;;;;5135856;27;20299;-62
2023/04/03 13:48:25;;;;;;;;;;;20.00;43.50;;;;;;5119275;27;19930;-61
2023/04/03 13:50:53;;;;;;;;;;;20.00;43.50;;;;;;5093857;28;19968;-61
2023/04/03 13:53:20;;;;;;;;;;;20.00;43.50;;;;;;5080364;28;20347;-58
2023/04/03 13:56:01;;;;;;;;;;;20.00;43.50;;;;;;5094527;28;19919;-61
2023/04/03 13:58:28;;;;;;;;;;;20.00;43.50;;;;;;5086035;28;19920;-61
2023/04/03 14:00:56;;;;;;;;;;;20.00;43.50;;;;;;5108700;27;19924;-62
2023/04/03 14:03:23;;;;;;;;;;;20.00;43.50;;;;;;5091983;28;19919;-61
2023/04/03 14:05:50;;;;;;;;;;;20.00;43.50;;;;;;5120278;27;19925;-61
2023/04/03 14:08:17;;;;;;;;;;;20.00;43.50;;;;;;5100881;28;19920;-61
2023/04/03 14:10:43;;;;;;;;;;;20.00;43.50;;;;;;5092716;28;19972;-61
2023/04/03 14:13:12;;;;;;;;;;;20.00;43.50;;;;;;5107247;27;19920;-61
2023/04/03 14:15:39;;;;;;;;;;;20.00;43.50;;;;;;5112812;27;19943;-60
2023/04/03 14:18:07;;;;;;;;;;;20.00;43.50;;;;;;5088261;28;19927;-61
2023/04/03 14:20:34;;;;;;;;;;;20.00;43.50;;;;;;5091010;27;19920;-61
2023/04/03 14:23:00;;;;;;;;;;;20.00;43.50;;;;;;5102930;27;19965;-61